Latest Weather Observations for Delamere

IDD60801

Issued at 11:05 pm CST Friday 24 October 2014 (issued every 30 minutes, with the page automatically refreshed every 10 minutes)

About weather observations | Map of weather stations | Latest weather observations for NT | Other Formats
Station Details ID: 014949 Name: DELAMERE WEAPONS RANGE Lat: -15.74 Lon: 131.92 Height: 221.0 m
Data from the previous 72 hours. | See also: Recent months at Delamere
Date/Time
CST
Temp
°C
App
Temp
°C
Dew
Point
Rel
Hum
%
Delta-T
°C
Wind Press
QNH
hPa
Press
MSL
hPa
Rain
since 9 am
mm
Dir
 
Spd
km/h
Gust
km/h
Spd
kts
Gust
kts
24/11:00pm 30.2 26.8 9.1 27 11.9 NE 17 24 9 13 1013.2 - 0.0
24/10:30pm 30.8 28.3 9.6 27 12.1 NE 13 20 7 11 1012.9 - 0.0
24/10:00pm 30.3 27.8 9.8 28 11.7 NE 13 17 7 9 1012.6 - 0.0
24/09:30pm 29.2 29.1 9.3 29 11.2 CALM 0 0 0 0 1011.9 - 0.0
24/09:00pm 29.6 29.4 9.2 28 11.5 CALM 0 0 0 0 1011.8 1010.2 0.0
24/08:30pm 30.4 30.3 9.3 27 11.9 CALM 0 0 0 0 1011.4 - 0.0
24/08:00pm 31.5 31.3 9.1 25 12.7 CALM 0 0 0 0 1011.3 - 0.0
24/07:30pm 32.8 32.2 8.9 23 13.6 E 2 6 1 3 1011.1 - 0.0
24/07:00pm 34.1 32.7 8.7 21 14.5 ESE 6 7 3 4 1010.8 - 0.0
24/06:30pm 35.2 32.5 8.9 20 15.1 ESE 13 17 7 9 1010.5 - 0.0
24/06:00pm 35.8 32.8 9.3 20 15.4 E 15 22 8 12 1010.1 1008.5 0.0
24/05:30pm 36.2 32.4 8.9 19 15.7 ESE 19 28 10 15 1009.9 - 0.0
24/05:00pm 36.7 33.9 8.5 18 16.2 E 13 20 7 11 1009.8 - 0.0
24/04:30pm 37.1 33.2 8.8 18 16.4 SE 19 32 10 17 1009.9 - 0.0
24/04:00pm 36.7 32.8 8.5 18 16.2 E 19 30 10 16 1010.0 - 0.0
24/03:30pm 36.9 32.2 7.8 17 16.6 ENE 22 30 12 16 1010.1 - 0.0
24/03:00pm 36.5 32.3 7.5 17 16.4 ESE 19 32 10 17 1010.4 1008.8 0.0
24/02:30pm 36.6 31.9 7.6 17 16.4 E 22 33 12 18 1010.8 - 0.0
24/02:00pm 36.1 32.6 12.3 24 14.4 NE 22 33 12 18 1011.1 - 0.0
24/01:30pm 36.3 33.5 14.3 27 13.7 E 22 33 12 18 1011.5 - 0.0
24/01:00pm 35.6 33.5 12.5 24 14.0 NE 15 26 8 14 1012.2 - 0.0
24/12:30pm 35.1 32.1 12.7 26 13.6 NE 20 32 11 17 1012.9 - 0.0
24/12:00pm 34.6 31.5 13.4 28 13.0 ENE 22 32 12 17 1013.7 1012.2 0.0
24/11:30am 34.4 32.2 14.3 30 12.5 NE 19 32 10 17 1014.1 - 0.0
24/11:00am 33.3 31.5 14.4 32 11.7 E 17 35 9 19 1014.7 - 0.0
24/10:30am 33.1 31.2 15.1 33 11.2 E 19 30 10 16 1015.2 - 0.0
24/10:00am 31.7 30.3 15.6 37 10.1 NNE 17 26 9 14 1015.5 - 0.0
24/09:30am 30.8 30.8 18.2 47 8.2 N 15 26 8 14 1015.7 - 0.0
24/09:00am 29.3 28.9 19.0 53 6.7 N 19 26 10 14 1015.7 1014.1 0.0
24/08:30am 28.2 28.8 20.2 62 5.3 N 17 24 9 13 1015.6 - 0.0
24/08:00am 27.6 28.1 18.3 57 6.0 NNE 13 17 7 9 1015.5 - 0.0
24/07:30am 26.2 25.1 15.3 51 6.7 NNE 15 20 8 11 1015.2 - 0.0
24/07:00am 24.9 24.0 12.5 46 7.2 NE 9 13 5 7 1015.0 - 0.0
24/06:30am 24.3 22.9 12.3 47 6.9 NE 11 13 6 7 1014.8 - 0.0
24/06:00am 24.4 23.3 12.0 46 7.1 NNE 9 11 5 6 1014.6 1013.0 0.0
24/05:30am 24.7 24.0 12.0 45 7.3 NE 7 9 4 5 1014.0 - 0.0
24/05:00am 24.8 23.6 11.7 44 7.5 NE 9 13 5 7 1013.7 - 0.0
24/04:30am 25.3 23.7 11.5 42 7.9 ENE 11 17 6 9 1013.3 - 0.0
24/04:00am 26.2 24.7 11.9 41 8.3 ENE 11 15 6 8 1013.3 - 0.0
24/03:30am 26.6 25.7 11.5 39 8.7 E 7 11 4 6 1013.0 - 0.0
24/03:00am 27.6 25.6 11.6 37 9.3 ENE 13 17 7 9 1013.0 1011.5 0.0
24/02:30am 28.0 26.2 12.0 37 9.3 E 13 19 7 10 1013.1 - 0.0
24/02:00am 28.5 26.8 12.4 37 9.5 E 13 20 7 11 1013.0 - 0.0
24/01:30am 29.2 27.0 12.2 35 10.0 ENE 15 20 8 11 1012.9 - 0.0
24/01:00am 29.6 27.9 12.5 35 10.1 ENE 13 19 7 10 1013.1 - 0.0
24/12:30am 30.1 27.7 12.5 34 10.5 ENE 17 26 9 14 1013.1 - 0.0
24/12:00am 30.2 28.9 12.6 34 10.5 E 11 17 6 9 1013.1 1011.6 0.0
 
Date/Time
CST
Temp
°C
App
Temp
°C
Dew
Point
Rel
Hum
%
Delta-T
°C
Wind Press
QNH
hPa
Press
MSL
hPa
Rain
since 9 am
mm
Dir
 
Spd
km/h
Gust
km/h
Spd
kts
Gust
kts
23/11:30pm 30.6 28.4 12.0 32 11.0 NE 15 22 8 12 1013.1 - 0.0
23/11:00pm 30.0 26.4 12.0 33 10.6 ENE 22 30 12 16 1013.2 - 0.0
23/10:30pm 28.5 28.5 9.7 31 10.6 CALM 0 0 0 0 1012.8 - 0.0
23/10:00pm 29.5 29.4 9.6 29 11.3 CALM 0 0 0 0 1012.6 - 0.0
23/09:30pm 30.3 30.4 10.3 29 11.5 CALM 0 0 0 0 1012.3 - 0.0
23/09:00pm 30.5 30.5 9.9 28 11.8 CALM 0 0 0 0 1012.0 1010.4 0.0
23/08:30pm 31.1 31.1 9.9 27 12.1 CALM 0 0 0 0 1011.7 - 0.0
23/08:00pm 33.1 32.0 9.8 24 13.4 E 6 7 3 4 1011.5 - 0.0
23/07:30pm 33.9 32.8 10.5 24 13.7 E 7 11 4 6 1011.3 - 0.0
23/07:00pm 34.6 32.9 11.1 24 13.9 ESE 11 17 6 9 1010.9 - 0.0
23/06:30pm 35.6 33.7 10.6 22 14.8 ESE 11 17 6 9 1010.4 - 0.0
23/06:00pm 36.3 34.4 10.5 21 15.3 ESE 11 15 6 8 1010.0 1008.4 0.0
23/05:30pm 36.6 35.3 10.0 20 15.6 NE 7 17 4 9 1009.8 - 0.0
23/05:00pm 37.0 33.9 10.3 20 15.8 SE 17 26 9 14 1009.4 - 0.0
23/04:30pm 37.4 34.6 9.9 19 16.2 SE 15 26 8 14 1009.7 - 0.0
23/04:00pm 36.9 33.5 7.8 17 16.6 ESE 15 24 8 13 1010.0 - 0.0
23/03:30pm 37.4 34.7 9.1 18 16.5 E 13 30 7 16 1010.1 - 0.0
23/03:00pm 37.4 34.1 8.2 17 16.8 E 15 33 8 18 1010.3 1008.7 0.0
23/02:30pm 36.8 32.9 8.6 18 16.2 SE 19 26 10 14 1010.5 - 0.0
23/02:00pm 36.5 32.7 9.2 19 15.8 NE 19 30 10 16 1011.0 - 0.0
23/01:30pm 36.4 33.4 9.1 19 15.8 ENE 15 24 8 13 1011.5 - 0.0
23/01:00pm 35.3 32.6 10.4 22 14.6 E 15 26 8 14 1012.2 - 0.0
23/12:30pm 35.5 32.8 10.5 22 14.7 NE 15 26 8 14 1012.9 - 0.0
23/12:00pm 34.9 31.7 11.3 24 14.0 NE 19 33 10 18 1013.6 1012.1 0.0
23/11:30am 34.4 31.1 11.5 25 13.6 N 20 33 11 18 1014.0 - 0.0
23/11:00am 33.7 30.6 11.5 26 13.2 ENE 19 37 10 20 1014.6 - 0.0
23/10:00am 31.4 28.7 13.6 33 10.8 NNE 20 33 11 18 1015.5 - 0.0
23/09:30am 30.2 28.8 15.5 41 9.1 N 17 28 9 15 1015.8 - 0.0
23/09:00am 29.1 28.8 19.1 54 6.5 N 19 30 10 16 1015.9 1014.3 0.0
23/08:30am 28.3 29.1 20.6 63 5.1 N 17 24 9 13 1015.8 - 0.0
23/08:00am 26.9 27.4 16.5 53 6.5 N 9 13 5 7 1015.8 - 0.0
23/07:30am 25.3 23.9 12.2 44 7.6 NNE 11 13 6 7 1015.5 - 0.0
23/07:00am 23.6 22.4 10.3 43 7.4 N 7 9 4 5 1015.0 - 0.0
23/06:30am 22.9 21.6 10.0 44 7.1 NE 7 9 4 5 1014.9 - 0.0
23/06:00am 23.2 21.5 9.9 43 7.3 ENE 9 13 5 7 1014.4 1012.8 0.0
23/05:30am 23.7 21.7 10.0 42 7.6 E 11 13 6 7 1013.9 - 0.0
23/05:00am 23.8 22.2 10.1 42 7.6 ENE 9 13 5 7 1013.3 - 0.0
23/04:30am 24.5 22.8 10.0 40 8.1 ENE 9 13 5 7 1013.0 - 0.0
23/04:00am 24.9 22.9 10.0 39 8.3 ENE 11 13 6 7 1012.7 - 0.0
23/03:30am 25.6 23.2 10.2 38 8.6 N 13 15 7 8 1012.5 - 0.0
23/03:00am 26.1 23.8 10.3 37 8.9 NE 13 19 7 10 1012.3 1010.7 0.0
23/02:30am 26.0 23.7 10.6 38 8.7 ENE 13 17 7 9 1012.5 - 0.0
23/02:00am 26.8 24.5 10.5 36 9.2 ENE 13 17 7 9 1012.7 - 0.0
23/01:30am 27.5 25.3 10.7 35 9.6 ENE 13 19 7 10 1012.9 - 0.0
23/01:00am 28.1 25.5 10.8 34 9.9 ENE 15 20 8 11 1012.9 - 0.0
23/12:30am 28.4 25.8 10.6 33 10.2 NE 15 20 8 11 1012.8 - 0.0
23/12:00am 29.1 26.8 10.3 31 10.7 ENE 13 17 7 9 1013.1 1011.6 0.0
 
Date/Time
CST
Temp
°C
App
Temp
°C
Dew
Point
Rel
Hum
%
Delta-T
°C
Wind Press
QNH
hPa
Press
MSL
hPa
Rain
since 9 am
mm
Dir
 
Spd
km/h
Gust
km/h
Spd
kts
Gust
kts
22/11:30pm 30.4 26.2 9.8 28 11.7 NE 22 37 12 20 1013.1 - 0.0
22/11:22pm 30.7 25.6 10.6 29 11.6 NE 28 37 15 20 1013.0 - 0.0
22/11:00pm 28.8 27.1 8.5 28 11.2 NNE 7 9 4 5 1012.8 - 0.0
22/10:30pm 29.8 27.8 8.8 27 11.7 ENE 9 13 5 7 1012.7 - 0.0
22/10:00pm 30.2 28.2 8.6 26 12.1 NNE 9 13 5 7 1012.5 - 0.0
22/09:30pm 30.5 28.8 8.3 25 12.4 NE 7 9 4 5 1012.5 - 0.0
22/09:00pm 31.5 30.0 9.1 25 12.7 NE 7 9 4 5 1012.3 1010.7 0.0
22/08:30pm 32.2 30.3 9.1 24 13.1 ENE 9 13 5 7 1012.1 - 0.0
22/08:00pm 33.0 31.3 9.7 24 13.4 ENE 9 13 5 7 1011.8 - 0.0
22/07:30pm 33.2 31.9 9.3 23 13.7 ESE 6 7 3 4 1011.6 - 0.0
22/07:00pm 34.4 33.0 9.6 22 14.3 E 7 11 4 6 1011.3 - 0.0
22/06:30pm 35.6 33.9 9.9 21 15.0 E 9 17 5 9 1010.9 - 0.0
22/06:00pm 36.2 33.9 10.4 21 15.2 E 13 26 7 14 1010.6 1009.0 0.0
22/05:30pm 36.6 35.5 10.7 21 15.4 ENE 7 20 4 11 1010.4 - 0.0
22/05:00pm 36.4 33.0 10.6 21 15.3 E 19 30 10 16 1010.3 - 0.0
22/04:30pm 37.3 34.9 11.3 21 15.6 E 15 26 8 14 1010.3 - 0.0
22/04:00pm 36.3 33.5 11.2 22 15.0 E 17 24 9 13 1010.4 - 0.0
22/03:30pm 37.6 34.8 11.5 21 15.7 ESE 17 24 9 13 1010.6 - 0.0
22/03:00pm 36.2 33.5 11.8 23 14.7 ESE 17 28 9 15 1010.8 1009.2 0.0
22/02:30pm 37.4 35.8 12.8 23 15.1 NE 13 30 7 16 1011.2 - 0.0
22/02:00pm 36.6 33.8 12.7 23 14.6 ENE 19 28 10 15 1011.7 - 0.0
22/01:30pm 35.0 33.5 12.0 25 13.8 ENE 11 22 6 12 1012.3 - 0.0
22/01:00pm 35.1 33.1 11.5 24 14.1 NE 13 30 7 16 1013.0 - 0.0
22/12:30pm 34.7 32.4 13.0 27 13.2 NE 17 32 9 17 1013.7 - 0.0
22/12:00pm 34.5 31.9 13.9 29 12.7 NE 20 33 11 18 1014.5 1012.9 0.0
22/11:30am 33.1 30.8 14.7 33 11.4 NE 20 32 11 17 1015.0 - 0.0
22/11:00am 32.2 29.3 15.2 35 10.6 NNE 24 32 13 17 1015.4 - 0.0
22/10:30am 31.9 30.4 17.8 43 9.1 N 22 30 12 16 1015.7 - 0.0
22/10:00am 31.3 30.8 18.6 46 8.3 NNE 19 30 10 16 1016.0 - 0.0
22/09:30am 29.6 29.2 19.0 53 6.9 N 19 26 10 14 1016.1 - 0.0
22/09:00am 28.7 28.6 19.6 58 6.0 N 19 24 10 13 1016.1 1014.5 0.0
22/08:30am 27.2 26.6 18.8 60 5.4 N 20 28 11 15 1016.0 - 0.0
22/08:00am 26.4 25.3 15.4 50 6.7 NNE 15 19 8 10 1015.8 - 0.0
22/07:30am 25.0 23.2 13.2 48 6.9 NNE 15 19 8 10 1015.6 - 0.0
22/07:00am 23.4 22.1 11.1 46 6.9 NE 9 15 5 8 1015.3 - 0.0
22/06:30am 22.6 21.3 10.1 45 6.9 NE 7 11 4 6 1015.0 - 0.0
22/06:00am 22.8 20.7 9.9 44 7.1 NE 11 13 6 7 1014.7 1013.1 0.0
22/05:30am 23.1 20.9 9.5 42 7.4 NE 11 13 6 7 1014.4 - 0.0
22/05:00am 23.3 21.1 9.3 41 7.6 NE 11 15 6 8 1013.8 - 0.0
22/04:30am 23.3 21.3 8.6 39 7.9 ENE 9 11 5 6 1013.5 - 0.0
22/04:00am 24.6 22.7 9.0 37 8.5 ENE 9 11 5 6 1013.2 - 0.0
22/03:30am 25.1 22.4 9.0 36 8.8 E 13 17 7 9 1012.9 - 0.0
22/03:00am 24.9 22.5 8.8 36 8.8 ESE 11 13 6 7 1013.0 1011.5 0.0
22/02:30am 24.8 22.4 8.7 36 8.8 ESE 11 15 6 8 1013.0 - 0.0
22/02:00am 25.0 22.2 8.5 35 9.0 SE 13 19 7 10 1013.3 - 0.0
22/01:30am 25.5 23.8 8.5 34 9.2 ENE 7 9 4 5 1013.3 - 0.0
22/01:00am 25.9 23.9 8.8 34 9.4 E 9 13 5 7 1013.5 - 0.0
22/12:30am 25.8 24.3 9.2 35 9.2 E 7 11 4 6 1013.7 - 0.0
22/12:00am 25.9 25.6 8.8 34 9.4 CALM 0 4 0 2 1013.7 1012.2 0.0
 
Date/Time
CST
Temp
°C
App
Temp
°C
Dew
Point
Rel
Hum
%
Delta-T
°C
Wind Press
QNH
hPa
Press
MSL
hPa
Rain
since 9 am
mm
Dir
 
Spd
km/h
Gust
km/h
Spd
kts
Gust
kts
21/11:30pm 26.4 26.5 13.9 46 7.5 ENE 6 7 3 4 1014.0 - 0.0

Other Formats:

Comma delimited format used in spreadsheet applications
http://www.bom.gov.au/fwo/IDD60801/IDD60801.94225.axf

JavaScript Object Notation format (JSON) in row-major order
http://www.bom.gov.au/fwo/IDD60801/IDD60801.94225.json